Time;durP1;ratioP1;P1;durP2;ratioP2;P2;SDS_P1;SDS_P2;PMS_P1;PMS_P2;Temp;Humidity;BMP_temperature;BMP_pressure;BME280_temperature;BME280_humidity;BME280_pressure;Samples;Min_cycle;Max_cycle;Signal;HPM_P1;HPM_P2
2024/01/21 00:00:43;;;;;;;23.00;9.70;;;;;;;-9.14;100.00;140064.84;107180;1267;23393;-61
2024/01/21 00:03:29;;;;;;;23.10;10.10;;;;;;;-9.21;100.00;140049.08;107244;1269;25369;-60
2024/01/21 00:06:14;;;;;;;20.10;9.90;;;;;;;-9.24;100.00;140039.70;107110;1266;25324;-56
2024/01/21 00:09:00;;;;;;;16.50;9.70;;;;;;;-9.23;100.00;140043.17;107048;1268;25540;-64
2024/01/21 00:11:46;;;;;;;19.50;8.90;;;;;;;-9.21;100.00;140047.59;106977;1268;25356;-59
2024/01/21 00:14:32;;;;;;;19.50;8.80;;;;;;;-9.20;100.00;140051.05;106994;1274;23142;-61
2024/01/21 00:17:17;;;;;;;20.90;8.80;;;;;;;-9.23;100.00;140042.17;107164;1268;25373;-60
2024/01/21 00:20:04;;;;;;;22.60;9.60;;;;;;;-9.25;100.00;140038.47;107117;1256;25306;-56
2024/01/21 00:22:49;;;;;;;20.90;7.90;;;;;;;-9.28;100.00;140030.34;107251;1264;25491;-59
2024/01/21 00:25:35;;;;;;;23.30;8.60;;;;;;;-9.29;100.00;140028.88;107160;1268;25484;-62
2024/01/21 00:28:20;;;;;;;16.10;8.40;;;;;;;-9.29;100.00;140028.88;107116;1266;25369;-62
2024/01/21 00:31:06;;;;;;;19.80;9.10;;;;;;;-9.26;100.00;140034.78;107145;1266;25388;-60
2024/01/21 00:33:51;;;;;;;17.90;9.30;;;;;;;-9.24;100.00;140039.95;107098;1254;25481;-63
2024/01/21 00:36:37;;;;;;;17.20;8.20;;;;;;;-9.27;100.00;140033.78;107129;1254;22549;-62
2024/01/21 00:39:23;;;;;;;18.00;9.20;;;;;;;-9.29;100.00;140027.38;107081;1265;25803;-61
2024/01/21 00:42:08;;;;;;;15.30;8.80;;;;;;;-9.28;100.00;140031.09;107056;1263;25495;-59
2024/01/21 00:44:54;;;;;;;17.10;9.00;;;;;;;-9.21;100.00;140047.61;107136;1266;25567;-62
2024/01/21 00:47:40;;;;;;;20.20;10.00;;;;;;;-9.16;100.00;140059.91;107048;1256;25414;-63
2024/01/21 00:50:26;;;;;;;17.40;9.70;;;;;;;-9.12;100.00;140069.78;107114;1266;25443;-61
2024/01/21 00:53:12;;;;;;;18.10;9.00;;;;;;;-9.08;100.00;140079.63;107069;1256;25341;-62
2024/01/21 00:55:57;;;;;;;16.00;8.50;;;;;;;-9.08;100.00;140078.41;107122;1266;25372;-57
2024/01/21 00:58:43;;;;;;;19.60;9.90;;;;;;;-9.05;100.00;140087.28;107140;1263;25806;-61
2024/01/21 01:01:30;;;;;;;20.20;9.60;;;;;;;-9.00;100.00;140099.11;107096;1274;22519;-58
2024/01/21 01:04:16;;;;;;;20.80;9.60;;;;;;;-8.96;100.00;140108.22;107061;1266;25558;-61
2024/01/21 01:07:02;;;;;;;18.70;10.50;;;;;;;-8.92;100.00;140116.59;107070;1266;23253;-60
2024/01/21 01:09:47;;;;;;;20.20;9.80;;;;;;;-8.89;100.00;140122.77;107116;1268;25343;-61
2024/01/21 01:12:33;;;;;;;23.00;11.80;;;;;;;-8.90;100.00;140121.03;107057;1256;25398;-63
2024/01/21 01:15:19;;;;;;;15.70;9.90;;;;;;;-8.93;100.00;140114.63;106988;1256;25459;-62
2024/01/21 01:18:05;;;;;;;19.30;10.10;;;;;;;-8.89;100.00;140124.50;107056;1266;25341;-62
2024/01/21 01:20:51;;;;;;;22.30;10.80;;;;;;;-8.83;100.00;140137.80;107063;1272;25362;-58
2024/01/21 01:23:39;;;;;;;20.90;9.60;;;;;;;-8.82;100.00;140141.75;107093;1265;25363;-57
2024/01/21 01:26:25;;;;;;;19.30;10.70;;;;;;;-8.85;100.00;140134.09;107141;1266;25359;-60
2024/01/21 01:29:11;;;;;;;18.90;10.70;;;;;;;-8.88;100.00;140128.20;107146;1271;25337;-62
2024/01/21 01:31:56;;;;;;;20.70;10.80;;;;;;;-8.87;100.00;140129.42;107087;1263;25490;-61
2024/01/21 01:34:42;;;;;;;22.40;10.50;;;;;;;-8.84;100.00;140137.31;107102;1266;25531;-61
2024/01/21 01:37:28;;;;;;;19.40;10.90;;;;;;;-8.79;100.00;140149.66;107132;1267;25368;-60
2024/01/21 01:40:17;;;;;;;23.30;12.40;;;;;;;-8.73;100.00;140162.72;107087;1263;25339;-62
2024/01/21 01:43:03;;;;;;;18.90;11.00;;;;;;;-8.71;100.00;140166.92;107084;1268;25362;-63
2024/01/21 01:45:50;;;;;;;23.50;11.40;;;;;;;-8.73;100.00;140164.44;107050;1269;25353;-56
2024/01/21 01:48:37;;;;;;;19.90;11.70;;;;;;;-8.74;100.00;140161.72;107105;1266;25366;-58
2024/01/21 01:51:22;;;;;;;26.20;12.00;;;;;;;-8.76;100.00;140154.83;107054;1263;25389;-61
2024/01/21 01:54:09;;;;;;;20.80;11.60;;;;;;;-8.75;100.00;140159.77;107044;1266;25456;-56
2024/01/21 01:56:55;;;;;;;23.90;12.10;;;;;;;-8.71;100.00;140167.66;107025;1266;25402;-58
2024/01/21 01:59:41;;;;;;;22.30;11.20;;;;;;;-8.67;100.00;140178.25;107012;1263;25442;-62
2024/01/21 02:02:27;;;;;;;24.10;12.80;;;;;;;-8.66;100.00;140178.73;106984;1266;25410;-62
2024/01/21 02:05:13;;;;;;;21.90;11.30;;;;;;;-8.65;100.00;140183.67;106998;1272;25439;-60
2024/01/21 02:07:59;;;;;;;22.80;12.10;;;;;;;-8.67;100.00;140178.50;107027;1266;25372;-62
2024/01/21 02:10:45;;;;;;;25.90;11.80;;;;;;;-8.70;100.00;140169.88;107013;1266;25335;-59
2024/01/21 02:13:31;;;;;;;24.50;11.50;;;;;;;-8.69;100.00;140171.59;106995;1267;25768;-59
2024/01/21 02:16:16;;;;;;;20.80;11.60;;;;;;;-8.68;100.00;140175.03;107096;1263;25406;-59
2024/01/21 02:19:10;;;;;;;24.10;11.30;;;;;;;-8.68;100.00;140174.80;106953;1267;25369;-63
2024/01/21 02:21:56;;;;;;;21.50;11.70;;;;;;;-8.69;100.00;140171.59;106901;1269;25362;-58
2024/01/21 02:24:42;;;;;;;20.30;11.10;;;;;;;-8.73;100.00;140163.19;106888;1266;25497;-64
2024/01/21 02:27:28;;;;;;;22.70;12.20;;;;;;;-8.73;100.00;140163.20;106984;1266;25481;-60
2024/01/21 02:30:14;;;;;;;19.90;11.10;;;;;;;-8.76;100.00;140156.80;107021;1266;25372;-58
2024/01/21 02:33:00;;;;;;;20.00;12.20;;;;;;;-8.79;100.00;140148.41;106881;1266;25398;-62
2024/01/21 02:35:46;;;;;;;22.20;11.80;;;;;;;-8.76;100.00;140157.28;106992;1265;25334;-61
2024/01/21 02:38:32;;;;;;;22.80;13.00;;;;;;;-8.68;100.00;140175.28;107103;1266;25382;-58
2024/01/21 02:41:17;;;;;;;23.00;12.20;;;;;;;-8.64;100.00;140184.17;107117;1269;25383;-60
2024/01/21 02:44:03;;;;;;;24.20;12.30;;;;;;;-8.64;100.00;140184.17;107153;1257;25383;-63
2024/01/21 02:46:49;;;;;;;23.90;12.50;;;;;;;-8.64;100.00;140184.19;107107;1266;25360;-55
2024/01/21 02:49:34;;;;;;;22.80;12.80;;;;;;;-8.66;100.00;140179.22;107078;1255;25861;-64
2024/01/21 02:52:20;;;;;;;19.10;11.40;;;;;;;-8.64;100.00;140184.66;107147;1273;25391;-61
2024/01/21 02:55:06;;;;;;;23.70;12.80;;;;;;;-8.60;100.00;140194.28;107124;1263;25488;-64
2024/01/21 02:57:51;;;;;;;22.60;11.80;;;;;;;-8.58;100.00;140200.19;107066;1265;24263;-59
2024/01/21 03:00:36;;;;;;;22.70;12.90;;;;;;;-8.60;100.00;140196.00;107069;1269;25344;-59
2024/01/21 03:03:23;;;;;;;23.70;12.50;;;;;;;-8.60;100.00;140195.28;107056;1267;25335;-61
2024/01/21 03:06:08;;;;;;;22.70;12.80;;;;;;;-8.58;100.00;140199.19;107025;1266;25494;-61
2024/01/21 03:08:54;;;;;;;22.30;11.90;;;;;;;-8.57;100.00;140203.16;107048;1263;23288;-62
2024/01/21 03:11:39;;;;;;;18.00;11.40;;;;;;;-8.52;100.00;140213.52;107034;1268;25417;-60
2024/01/21 03:14:25;;;;;;;24.20;12.00;;;;;;;-8.46;100.00;140226.31;107043;1266;25490;-59
2024/01/21 03:17:11;;;;;;;19.50;11.50;;;;;;;-8.42;100.00;140237.67;107090;1254;24247;-63
2024/01/21 03:19:56;;;;;;;19.20;12.60;;;;;;;-8.41;100.00;140238.66;107062;1266;25518;-63
2024/01/21 03:22:42;;;;;;;19.20;11.60;;;;;;;-8.46;100.00;140228.30;107155;1264;24384;-64
2024/01/21 03:25:28;;;;;;;21.80;12.30;;;;;;;-8.48;100.00;140223.09;107064;1266;25382;-59
2024/01/21 03:28:14;;;;;;;20.00;12.40;;;;;;;-8.50;100.00;140217.94;107123;1256;23233;-62
2024/01/21 03:31:00;;;;;;;24.60;12.40;;;;;;;-8.47;100.00;140225.59;107112;1273;25338;-60
2024/01/21 03:33:46;;;;;;;20.20;11.60;;;;;;;-8.40;100.00;140242.09;106900;1265;22523;-61
2024/01/21 03:36:32;;;;;;;22.60;12.40;;;;;;;-8.37;100.00;140250.19;106990;1273;25417;-62
2024/01/21 03:39:19;;;;;;;25.30;13.10;;;;;;;-8.34;100.00;140256.13;107133;1266;25421;-57
2024/01/21 03:42:04;;;;;;;20.50;12.00;;;;;;;-8.34;100.00;140256.13;107144;1257;25370;-63
2024/01/21 03:44:50;;;;;;;21.50;12.80;;;;;;;-8.39;100.00;140246.03;107136;1265;25378;-59
2024/01/21 03:47:36;;;;;;;23.30;12.50;;;;;;;-8.44;100.00;140232.00;107125;1263;25487;-62
2024/01/21 03:50:21;;;;;;;24.50;13.70;;;;;;;-8.45;100.00;140230.02;107065;1267;25421;-62
2024/01/21 03:53:07;;;;;;;21.20;12.70;;;;;;;-8.41;100.00;140240.88;107089;1274;25363;-61
2024/01/21 03:55:53;;;;;;;24.70;13.50;;;;;;;-8.41;100.00;140239.66;107092;1267;25309;-60
2024/01/21 03:58:39;;;;;;;22.90;13.30;;;;;;;-8.40;100.00;140241.13;107095;1266;25494;-64
2024/01/21 04:01:24;;;;;;;23.00;13.20;;;;;;;-8.40;100.00;140243.59;107039;1266;25408;-62
2024/01/21 04:04:13;;;;;;;29.30;14.20;;;;;;;-8.41;100.00;140239.91;107094;1266;25344;-58
2024/01/21 04:06:59;;;;;;;28.90;15.20;;;;;;;-8.37;100.00;140248.72;107083;1269;25531;-58
2024/01/21 04:09:45;;;;;;;26.20;13.80;;;;;;;-8.33;100.00;140260.06;107096;1263;25297;-53
2024/01/21 04:12:31;;;;;;;32.00;15.30;;;;;;;-8.28;100.00;140270.67;106992;1266;25359;-64
2024/01/21 04:15:17;;;;;;;30.60;13.80;;;;;;;-8.22;100.00;140285.47;107008;1266;25335;-58
2024/01/21 04:18:03;;;;;;;20.30;13.80;;;;;;;-8.20;100.00;140291.13;106981;1263;25490;-62
2024/01/21 04:20:48;;;;;;;22.10;12.50;;;;;;;-8.22;100.00;140286.72;106990;1267;25699;-61
2024/01/21 04:23:34;;;;;;;26.50;13.30;;;;;;;-8.22;100.00;140284.97;107009;1269;25340;-61
2024/01/21 04:26:20;;;;;;;24.90;12.50;;;;;;;-8.23;100.00;140282.75;106993;1272;25359;-61
2024/01/21 04:29:06;;;;;;;21.40;12.80;;;;;;;-8.25;100.00;140279.80;107029;1263;25353;-66
2024/01/21 04:31:51;;;;;;;21.90;13.10;;;;;;;-8.28;100.00;140270.92;107013;1268;25421;-57
2024/01/21 04:34:37;;;;;;;24.30;14.30;;;;;;;-8.27;100.00;140272.88;107038;1273;25324;-60
2024/01/21 04:37:23;;;;;;;19.70;12.30;;;;;;;-8.26;100.00;140275.84;106990;1263;25411;-60
2024/01/21 04:40:10;;;;;;;24.60;13.40;;;;;;;-8.32;100.00;140262.28;107098;1266;25356;-63
2024/01/21 04:42:56;;;;;;;23.80;13.30;;;;;;;-8.45;100.00;140230.53;107123;1263;23221;-64
2024/01/21 04:45:42;;;;;;;24.60;13.80;;;;;;;-8.52;100.00;140214.75;107184;1256;25876;-62
2024/01/21 04:48:28;;;;;;;20.90;13.00;;;;;;;-8.52;100.00;140214.73;107166;1257;25350;-60
2024/01/21 04:51:13;;;;;;;21.40;12.30;;;;;;;-8.47;100.00;140226.08;107158;1264;23251;-63
2024/01/21 04:53:59;;;;;;;21.80;13.60;;;;;;;-8.47;100.00;140225.34;107159;1256;25526;-57
2024/01/21 04:56:45;;;;;;;20.70;12.70;;;;;;;-8.52;100.00;140214.50;107159;1266;25370;-56
2024/01/21 04:59:31;;;;;;;22.50;12.70;;;;;;;-8.57;100.00;140203.41;107204;1267;25335;-62
2024/01/21 05:02:18;;;;;;;19.70;12.60;;;;;;;-8.59;100.00;140198.47;107120;1267;25570;-59
2024/01/21 05:05:04;;;;;;;21.20;13.10;;;;;;;-8.55;100.00;140207.34;107109;1272;25404;-61
2024/01/21 05:07:51;;;;;;;17.60;11.90;;;;;;;-8.52;100.00;140214.00;107168;1256;25401;-64
2024/01/21 05:10:37;;;;;;;20.80;12.00;;;;;;;-8.54;100.00;140209.09;107134;1266;25334;-64
2024/01/21 05:13:22;;;;;;;20.40;12.40;;;;;;;-8.56;100.00;140205.61;107095;1274;25363;-57
2024/01/21 05:16:09;;;;;;;20.40;11.20;;;;;;;-8.50;100.00;140217.94;107165;1272;25362;-60
2024/01/21 05:18:56;;;;;;;19.30;11.60;;;;;;;-8.48;100.00;140223.38;107088;1266;25359;-62
2024/01/21 05:21:41;;;;;;;20.50;12.10;;;;;;;-8.46;100.00;140227.33;107078;1267;25334;-61
2024/01/21 05:24:27;;;;;;;22.10;11.40;;;;;;;-8.44;100.00;140232.50;107233;1266;23771;-63
2024/01/21 05:27:13;;;;;;;17.80;10.60;;;;;;;-8.43;100.00;140234.47;107165;1255;25487;-59
2024/01/21 05:29:59;;;;;;;18.80;11.10;;;;;;;-8.42;100.00;140238.91;107114;1270;25362;-58
2024/01/21 05:32:46;;;;;;;18.70;11.60;;;;;;;-8.40;100.00;140242.38;107105;1275;25372;-60
2024/01/21 05:35:31;;;;;;;16.00;9.80;;;;;;;-8.39;100.00;140245.55;107101;1273;22712;-61
2024/01/21 05:38:17;;;;;;;20.40;11.10;;;;;;;-8.49;100.00;140220.66;107127;1263;22527;-59
2024/01/21 05:41:02;;;;;;;16.90;10.40;;;;;;;-8.62;100.00;140189.84;107047;1257;23950;-60
2024/01/21 05:43:48;;;;;;;15.40;9.90;;;;;;;-8.78;100.00;140151.59;107064;1261;25335;-57
2024/01/21 05:46:34;;;;;;;17.50;10.20;;;;;;;-8.93;100.00;140114.16;107142;1271;25372;-60
2024/01/21 05:49:20;;;;;;;17.20;10.40;;;;;;;-9.03;100.00;140090.73;107078;1274;25362;-59
2024/01/21 05:52:05;;;;;;;18.50;11.60;;;;;;;-9.14;100.00;140065.34;107093;1266;25359;-61
2024/01/21 05:54:51;;;;;;;18.90;10.70;;;;;;;-9.24;100.00;140041.17;107108;1268;25353;-59
2024/01/21 05:57:37;;;;;;;18.60;10.60;;;;;;;-9.28;100.00;140031.58;107152;1263;25417;-60
2024/01/21 06:00:23;;;;;;;18.70;11.80;;;;;;;-9.26;100.00;140035.03;107146;1264;25400;-62
2024/01/21 06:03:09;;;;;;;16.80;11.00;;;;;;;-9.27;100.00;140034.28;107068;1272;25344;-61
2024/01/21 06:05:56;;;;;;;22.70;13.50;;;;;;;-9.29;100.00;140027.41;107129;1272;25796;-60
2024/01/21 06:08:42;;;;;;;18.40;10.60;;;;;;;-9.37;100.00;140008.91;107033;1261;25484;-62
2024/01/21 06:11:29;;;;;;;19.40;11.60;;;;;;;-9.40;100.00;140002.73;107134;1261;25485;-65
2024/01/21 06:14:14;;;;;;;19.10;12.40;;;;;;;-9.41;100.00;140000.30;106979;1270;25402;-60
2024/01/21 06:17:00;;;;;;;21.40;12.60;;;;;;;-9.38;100.00;140005.45;107046;1254;25359;-59
2024/01/21 06:19:45;;;;;;;18.30;11.80;;;;;;;-9.38;100.00;140006.72;107182;1264;25404;-63
2024/01/21 06:22:31;;;;;;;17.70;11.70;;;;;;;-9.38;100.00;140006.70;107072;1266;25353;-62
2024/01/21 06:25:17;;;;;;;19.30;11.70;;;;;;;-9.33;100.00;140019.00;107087;1264;25335;-62
2024/01/21 06:28:03;;;;;;;18.60;12.80;;;;;;;-9.28;100.00;140031.58;107207;1265;25498;-62
2024/01/21 06:30:48;;;;;;;21.50;13.00;;;;;;;-9.22;100.00;140046.11;107222;1263;23446;-60
2024/01/21 06:33:35;;;;;;;22.30;12.60;;;;;;;-9.20;100.00;140051.05;107127;1266;25375;-59
2024/01/21 06:36:22;;;;;;;21.10;12.30;;;;;;;-9.27;100.00;140033.55;107076;1272;25403;-58
2024/01/21 06:39:09;;;;;;;18.80;11.90;;;;;;;-9.32;100.00;140021.47;107118;1272;25450;-64
2024/01/21 06:41:55;;;;;;;19.10;12.30;;;;;;;-9.30;100.00;140024.92;107125;1266;25372;-60
2024/01/21 06:44:41;;;;;;;18.70;12.00;;;;;;;-9.32;100.00;140020.25;107035;1266;25365;-62
2024/01/21 06:47:27;;;;;;;20.30;12.30;;;;;;;-9.33;100.00;140017.53;107084;1267;24247;-60
2024/01/21 06:50:13;;;;;;;18.40;12.40;;;;;;;-9.34;100.00;140015.08;107086;1273;25497;-57
2024/01/21 06:52:59;;;;;;;19.50;12.50;;;;;;;-9.42;100.00;139998.81;107099;1266;25345;-59
2024/01/21 06:55:45;;;;;;;19.60;12.80;;;;;;;-9.37;100.00;140008.42;107127;1272;25420;-59
2024/01/21 06:58:31;;;;;;;23.50;14.90;;;;;;;-9.30;100.00;140025.17;107160;1267;22529;-62
2024/01/21 07:01:17;;;;;;;22.10;13.40;;;;;;;-9.27;100.00;140032.08;106998;1274;25353;-58
2024/01/21 07:04:03;;;;;;;20.00;12.80;;;;;;;-9.36;100.00;140010.91;107139;1274;23165;-63
2024/01/21 07:06:48;;;;;;;19.30;13.30;;;;;;;-9.43;100.00;139995.13;107097;1266;22587;-63
2024/01/21 07:09:34;;;;;;;18.90;12.70;;;;;;;-9.41;100.00;140000.78;107110;1271;25523;-59
2024/01/21 07:12:20;;;;;;;22.10;14.80;;;;;;;-9.44;100.00;139993.16;107109;1269;25494;-57
2024/01/21 07:15:07;;;;;;;21.30;13.30;;;;;;;-9.51;100.00;139976.38;107109;1267;25337;-56
2024/01/21 07:17:52;;;;;;;22.40;14.50;;;;;;;-9.59;100.00;139956.70;107090;1266;25331;-63
2024/01/21 07:20:38;;;;;;;20.40;13.70;;;;;;;-9.62;100.00;139948.53;107095;1273;25334;-61
2024/01/21 07:23:24;;;;;;;22.40;13.50;;;;;;;-9.59;100.00;139956.20;107100;1274;25388;-62
2024/01/21 07:26:10;;;;;;;23.30;13.70;;;;;;;-9.53;100.00;139970.72;107163;1266;25497;-63
2024/01/21 07:28:55;;;;;;;20.00;13.90;;;;;;;-9.52;100.00;139972.20;107180;1274;25412;-60
2024/01/21 07:31:41;;;;;;;24.10;15.00;;;;;;;-9.54;100.00;139968.50;107265;1274;25427;-60
2024/01/21 07:34:27;;;;;;;20.90;13.40;;;;;;;-9.52;100.00;139973.92;107215;1267;25369;-59
2024/01/21 07:37:13;;;;;;;22.60;13.30;;;;;;;-9.53;100.00;139970.72;107033;1266;25375;-62
2024/01/21 07:39:58;;;;;;;22.70;14.30;;;;;;;-9.54;100.00;139967.78;107135;1267;25428;-60
2024/01/21 07:42:46;;;;;;;23.20;14.60;;;;;;;-9.55;100.00;139965.05;107244;1272;25487;-63
2024/01/21 07:45:31;;;;;;;25.90;15.90;;;;;;;-9.59;100.00;139955.47;107190;1267;25484;-62
2024/01/21 07:48:18;;;;;;;21.70;14.30;;;;;;;-9.60;100.00;139953.72;107160;1272;25534;-63
2024/01/21 07:51:04;;;;;;;21.40;14.30;;;;;;;-9.57;100.00;139960.36;107246;1260;22526;-60
2024/01/21 07:53:50;;;;;;;22.30;13.70;;;;;;;-9.56;100.00;139962.38;107185;1266;25353;-62
2024/01/21 07:56:36;;;;;;;25.00;15.40;;;;;;;-9.54;100.00;139968.28;107165;1266;25353;-61
2024/01/21 07:59:22;;;;;;;27.10;15.20;;;;;;;-9.50;100.00;139978.59;107182;1272;25338;-61
2024/01/21 08:02:08;;;;;;;20.40;13.50;;;;;;;-9.50;100.00;139977.38;107182;1261;25363;-62
2024/01/21 08:04:54;;;;;;;22.70;14.50;;;;;;;-9.53;100.00;139969.50;107382;1254;25531;-60
2024/01/21 08:07:40;;;;;;;23.80;14.20;;;;;;;-9.56;100.00;139962.84;107122;1269;25446;-60
2024/01/21 08:10:25;;;;;;;21.10;14.10;;;;;;;-9.55;100.00;139966.28;107133;1262;25362;-63
2024/01/21 08:13:11;;;;;;;21.90;13.90;;;;;;;-9.43;100.00;139995.11;107287;1254;25439;-59
2024/01/21 08:15:57;;;;;;;21.90;14.40;;;;;;;-9.37;100.00;140007.67;107110;1266;25338;-62
2024/01/21 08:18:44;;;;;;;25.80;14.40;;;;;;;-9.44;100.00;139991.91;107181;1266;25334;-62
2024/01/21 08:21:30;;;;;;;24.00;15.20;;;;;;;-9.43;100.00;139996.09;107566;1267;23867;-59
2024/01/21 08:24:16;;;;;;;22.50;14.50;;;;;;;-9.37;100.00;140008.66;107198;1254;25334;-60
2024/01/21 08:27:02;;;;;;;19.00;12.30;;;;;;;-9.30;100.00;140026.41;107145;1267;25363;-64
2024/01/21 08:29:48;;;;;;;23.50;14.80;;;;;;;-9.23;100.00;140041.44;107335;1270;25343;-56
2024/01/21 08:32:34;;;;;;;26.20;14.40;;;;;;;-9.24;100.00;140040.95;107134;1254;25494;-63
2024/01/21 08:35:20;;;;;;;21.10;13.50;;;;;;;-9.26;100.00;140035.03;107069;1272;25561;-57
2024/01/21 08:38:06;;;;;;;22.90;13.80;;;;;;;-9.31;100.00;140023.45;107184;1267;25440;-56
2024/01/21 08:40:52;;;;;;;23.80;14.20;;;;;;;-9.31;100.00;140023.45;107150;1260;25347;-65
2024/01/21 08:43:37;;;;;;;23.10;14.40;;;;;;;-9.25;100.00;140038.72;107154;1267;25412;-56
2024/01/21 08:46:23;;;;;;;24.40;16.00;;;;;;;-9.16;100.00;140060.16;107081;1261;25520;-63
2024/01/21 08:49:09;;;;;;;24.00;15.60;;;;;;;-9.09;100.00;140075.45;107174;1257;25335;-59
2024/01/21 08:51:54;;;;;;;22.10;14.40;;;;;;;-8.89;100.00;140124.47;107218;1258;25359;-60
2024/01/21 08:54:41;;;;;;;24.10;14.70;;;;;;;-8.71;100.00;140167.16;107163;1264;25347;-58
2024/01/21 08:57:26;;;;;;;22.40;14.20;;;;;;;-8.59;100.00;140196.73;107053;1267;25524;-58
2024/01/21 09:00:13;;;;;;;23.70;15.50;;;;;;;-8.59;100.00;140198.20;107171;1257;25441;-62
2024/01/21 09:03:00;;;;;;;23.50;14.90;;;;;;;-8.61;100.00;140193.03;107232;1267;25344;-59
2024/01/21 09:05:46;;;;;;;23.10;15.20;;;;;;;-8.65;100.00;140182.42;106968;1264;22532;-58
2024/01/21 09:08:31;;;;;;;23.70;15.20;;;;;;;-8.73;100.00;140163.70;107049;1266;25384;-62
2024/01/21 09:11:18;;;;;;;24.90;15.60;;;;;;;-8.77;100.00;140152.84;107274;1254;25332;-59
2024/01/21 09:14:04;;;;;;;19.10;13.30;;;;;;;-8.78;100.00;140151.86;107228;1267;25327;-56
2024/01/21 09:16:50;;;;;;;26.10;16.50;;;;;;;-8.80;100.00;140147.17;107083;1273;25334;-57
2024/01/21 09:19:36;;;;;;;24.30;14.70;;;;;;;-8.82;100.00;140142.50;108207;1254;24216;-61
2024/01/21 09:22:21;;;;;;;23.50;15.50;;;;;;;-8.85;100.00;140134.34;108458;1261;23345;-62
2024/01/21 09:25:08;;;;;;;21.90;13.80;;;;;;;-8.89;100.00;140123.52;107381;1264;22749;-58
2024/01/21 09:27:53;;;;;;;22.50;13.90;;;;;;;-8.95;100.00;140110.92;107533;1261;22605;-61
2024/01/21 09:30:41;;;;;;;21.80;14.20;;;;;;;-8.98;100.00;140103.05;107077;1264;25382;-64
2024/01/21 09:33:26;;;;;;;21.40;13.80;;;;;;;-9.04;100.00;140088.77;107454;1260;25349;-61
2024/01/21 09:36:12;;;;;;;19.90;12.80;;;;;;;-9.10;100.00;140074.45;107226;1260;25347;-57
2024/01/21 09:38:58;;;;;;;21.80;13.10;;;;;;;-9.12;100.00;140069.03;107244;1264;25330;-61
2024/01/21 09:41:49;;;;;;;20.90;12.00;;;;;;;-9.16;100.00;140059.42;107326;1260;22524;-62
2024/01/21 09:44:35;;;;;;;18.70;11.50;;;;;;;-9.32;100.00;140020.73;107425;1264;25411;-62
2024/01/21 09:47:21;;;;;;;20.10;12.00;;;;;;;-9.55;100.00;139964.55;107504;1263;25337;-62
2024/01/21 09:50:08;;;;;;;20.30;12.60;;;;;;;-9.73;100.00;139923.17;107849;1261;24449;-63
2024/01/21 09:52:53;;;;;;;23.40;12.30;;;;;;;-9.90;100.00;139882.80;107336;1264;23194;-63
2024/01/21 09:55:39;;;;;;;24.60;13.50;;;;;;;-10.05;100.00;139845.86;107703;1260;22536;-65
2024/01/21 09:58:28;;;;;;;23.10;13.00;;;;;;;-10.15;100.00;139821.25;107856;1267;23266;-62
2024/01/21 10:01:15;;;;;;;25.40;14.30;;;;;;;-10.21;100.00;139807.20;107573;1260;25385;-60
2024/01/21 10:04:01;;;;;;;25.90;14.10;;;;;;;-10.25;100.00;139796.59;107701;1261;25337;-59
2024/01/21 10:06:50;;;;;;;23.90;13.60;;;;;;;-10.29;100.00;139788.78;107415;1263;22529;-60
2024/01/21 10:09:36;;;;;;;24.50;14.40;;;;;;;-10.32;100.00;139781.41;107259;1260;25327;-62
2024/01/21 10:12:24;;;;;;;24.20;14.30;;;;;;;-10.35;100.00;139774.00;107218;1260;22517;-64
2024/01/21 10:15:13;;;;;;;28.90;16.00;;;;;;;-10.43;100.00;139753.08;107367;1260;25363;-62
2024/01/21 10:17:59;;;;;;;27.30;15.90;;;;;;;-10.48;100.00;139742.03;107427;1260;22540;-61
2024/01/21 10:20:46;;;;;;;26.50;13.90;;;;;;;-10.50;100.00;139738.56;107460;1267;22516;-61
2024/01/21 10:23:32;;;;;;;24.40;13.80;;;;;;;-10.57;100.00;139720.34;108005;1260;25324;-63
2024/01/21 10:26:18;;;;;;;27.70;15.30;;;;;;;-10.61;100.00;139710.02;107489;1263;22551;-62
2024/01/21 10:29:03;;;;;;;25.80;14.00;;;;;;;-10.63;100.00;139704.09;107961;1260;25362;-62
2024/01/21 10:31:55;;;;;;;;;;;;;;;-10.71;100.00;139687.38;107508;1256;25335;-62
2024/01/21 10:34:50;;;;;;;24.00;13.10;;;;;;;-10.77;100.00;139673.34;107740;1263;24247;-63
2024/01/21 10:37:39;;;;;;;24.30;13.40;;;;;;;-10.81;100.00;139662.28;107812;1260;25327;-64
2024/01/21 10:40:25;;;;;;;24.60;13.80;;;;;;;-10.89;100.00;139642.84;107344;1263;25345;-63
2024/01/21 10:43:14;;;;;;;26.80;13.80;;;;;;;-11.00;100.00;139616.05;107595;1259;25335;-64
2024/01/21 10:46:02;;;;;;;23.80;12.10;;;;;;;-11.08;100.00;139598.08;108191;1254;23266;-62
2024/01/21 10:48:49;;;;;;;22.90;13.00;;;;;;;-11.15;100.00;139580.86;108023;1260;22533;-65
2024/01/21 10:51:39;;;;;;;22.90;13.20;;;;;;;-11.16;100.00;139579.16;107670;1263;25357;-63
2024/01/21 10:54:26;;;;;;;22.90;13.30;;;;;;;-11.11;100.00;139588.73;107268;1260;25353;-62
2024/01/21 10:57:13;;;;;;;25.50;13.70;;;;;;;-11.14;100.00;139583.56;107258;1260;25433;-65
2024/01/21 10:59:59;;;;;;;22.80;12.30;;;;;;;-11.22;100.00;139564.13;107307;1254;25360;-63
2024/01/21 11:03:26;;;;;;;27.00;13.20;;;;;;;-11.30;100.00;139545.20;107279;1254;24837;-62
2024/01/21 11:06:13;;;;;;;24.50;12.90;;;;;;;-11.35;100.00;139531.91;107795;1254;25475;-63
2024/01/21 11:09:03;;;;;;;24.30;13.60;;;;;;;-11.41;100.00;139517.91;107836;1258;24400;-62
2024/01/21 11:11:50;;;;;;;26.60;15.50;;;;;;;-11.44;100.00;139510.78;107612;1256;25239;-62
2024/01/21 11:14:43;;;;;;;22.10;12.70;;;;;;;-11.46;100.00;139505.34;107481;1253;24316;-62
2024/01/21 11:17:29;;;;;;;21.60;12.40;;;;;;;-11.47;100.00;139504.88;107643;1259;23272;-67
2024/01/21 11:20:24;;;;;;;22.20;12.60;;;;;;;-11.48;100.00;139502.16;107557;1256;25498;-64
2024/01/21 11:23:16;;;;;;;22.50;13.40;;;;;;;-11.48;100.00;139501.92;107556;1261;25493;-63
2024/01/21 11:26:04;;;;;;;25.50;13.30;;;;;;;-11.48;100.00;139500.45;107511;1260;23605;-63
2024/01/21 11:28:49;;;;;;;22.30;13.00;;;;;;;-11.56;100.00;139482.00;107478;1253;23922;-64
2024/01/21 11:31:35;;;;;;;24.60;13.80;;;;;;;-11.66;100.00;139459.88;107039;1260;25362;-63
2024/01/21 11:34:21;;;;;;;25.20;13.80;;;;;;;-11.67;100.00;139455.69;107147;1261;25347;-67
2024/01/21 11:37:14;;;;;;;22.00;13.10;;;;;;;-11.72;100.00;139443.16;107476;1263;25425;-60
2024/01/21 11:40:03;;;;;;;23.90;13.20;;;;;;;-11.83;100.00;139416.84;107364;1263;23421;-64
2024/01/21 11:42:50;;;;;;;22.80;12.20;;;;;;;-11.90;100.00;139400.70;107048;1260;22643;-63
2024/01/21 11:45:38;;;;;;;24.20;13.20;;;;;;;-11.92;100.00;139396.28;107425;1254;25487;-63
2024/01/21 11:48:31;;;;;;;26.50;14.00;;;;;;;-11.92;100.00;139395.53;107437;1257;25393;-63
2024/01/21 11:51:17;;;;;;;26.80;14.60;;;;;;;-11.93;100.00;139392.34;107373;1260;22533;-63
2024/01/21 11:54:03;;;;;;;25.60;14.60;;;;;;;-11.94;100.00;139390.38;107429;1259;22580;-63
2024/01/21 11:56:50;;;;;;;24.70;13.50;;;;;;;-11.91;100.00;139398.22;107375;1260;22564;-64
2024/01/21 11:59:36;;;;;;;27.40;13.60;;;;;;;-11.81;100.00;139422.78;107249;1258;25366;-63
2024/01/21 12:02:24;;;;;;;24.50;14.30;;;;;;;-11.73;100.00;139442.67;107201;1260;22533;-63
2024/01/21 12:05:10;;;;;;;23.00;12.50;;;;;;;-11.83;100.00;139417.34;107356;1257;22726;-64
2024/01/21 12:07:55;;;;;;;23.70;13.20;;;;;;;-11.98;100.00;139380.53;107424;1257;25331;-61
2024/01/21 12:10:42;;;;;;;21.50;12.20;;;;;;;-12.10;100.00;139353.75;107697;1257;25385;-65
2024/01/21 12:13:30;;;;;;;25.00;14.10;;;;;;;-12.13;100.00;139344.91;108016;1257;25419;-62
2024/01/21 12:16:17;;;;;;;24.60;13.70;;;;;;;-12.13;100.00;139346.88;107387;1257;25890;-62
2024/01/21 12:19:04;;;;;;;29.20;15.90;;;;;;;-12.13;100.00;139346.38;107268;1257;25338;-61